Alden, Minnesota
Current Conditions -  °F | °C
As of 11:12 PM on Monday 22 Dec 2014 (Local Time) from KAEL Reporting Station
Haze Haze  
Wind Chill: 26°   Ceiling: 400
Heat Index: 34°   Visibility: 1.7mi
Dew Point: 34°   Wind: 10mph
Humidity: 100%   Direction: 80°E
Pressure: 29.53"   Gusts: NA
Location:  43.67°N, 93.58°W
Report Text: KAEL 230512Z AUTO 08009KT 1 3/4SM BR OVC004 01/01 A2953 RMK AO2
Loading
Personal Weather Stations






























Interactive Weather Map New forecast layout! Learn more

10-Day Weather Forecast

Advertisements
Track Severe Weather on mobile